createdAt,value
2023-01-03T00:00:59.324Z,100730.47
2023-01-03T00:03:01.439Z,100730.91
2023-01-03T00:05:04.566Z,100739.41
2023-01-03T00:07:06.445Z,100751.25
2023-01-03T00:09:11.104Z,100760.75
2023-01-03T00:11:17.391Z,100759.16
2023-01-03T00:13:20.360Z,100759.81
2023-01-03T00:15:23.446Z,100758.09
2023-01-03T00:17:25.696Z,100766.38
2023-01-03T00:19:29.480Z,100766.44
2023-01-03T00:21:31.358Z,100767.28
2023-01-03T00:23:35.405Z,100772.09
2023-01-03T00:25:38.297Z,100770.47
2023-01-03T00:27:40.209Z,100770.31
2023-01-03T00:29:43.602Z,100768.66
2023-01-03T00:31:45.785Z,100767.44
2023-01-03T00:33:47.743Z,100770.31
2023-01-03T00:35:49.710Z,100772.03
2023-01-03T00:37:51.611Z,100784.78
2023-01-03T00:39:54.520Z,100779.84
2023-01-03T00:41:56.505Z,100781.63
2023-01-03T00:43:58.642Z,100775.00
2023-01-03T00:46:01.288Z,100780.06
2023-01-03T00:48:03.258Z,100779.88
2023-01-03T00:50:05.481Z,100791.06
2023-01-03T00:52:10.664Z,100790.75
2023-01-03T00:54:14.268Z,100800.03
2023-01-03T00:56:21.678Z,100805.13
2023-01-03T00:58:23.674Z,100813.72
2023-01-03T01:00:25.611Z,100809.63
2023-01-03T01:02:27.757Z,100811.47
2023-01-03T01:04:31.995Z,100811.53
2023-01-03T01:06:36.468Z,100803.03
2023-01-03T01:08:38.422Z,100808.31
2023-01-03T01:11:02.043Z,100810.16
2023-01-03T01:13:04.010Z,100809.13
2023-01-03T01:15:06.671Z,100813.59
2023-01-03T01:17:09.696Z,100808.47
2023-01-03T01:19:11.595Z,100808.63
2023-01-03T01:21:33.681Z,100815.47
2023-01-03T01:23:37.828Z,100816.53
2023-01-03T01:25:39.715Z,100820.84
2023-01-03T01:27:42.681Z,100817.66
2023-01-03T01:29:45.319Z,100818.31
2023-01-03T01:31:48.736Z,100820.25
2023-01-03T01:33:53.105Z,100826.44
2023-01-03T01:35:55.229Z,100833.28
2023-01-03T01:37:59.560Z,100835.06
2023-01-03T01:40:01.421Z,100837.56
2023-01-03T01:42:31.008Z,100836.63
2023-01-03T01:44:40.309Z,100828.09
2023-01-03T01:46:43.182Z,100835.78
2023-01-03T01:48:45.238Z,100839.34
2023-01-03T01:50:57.329Z,100832.50
2023-01-03T01:53:05.120Z,100831.66
2023-01-03T01:55:11.070Z,100837.81
2023-01-03T01:57:18.372Z,100834.19
2023-01-03T01:59:21.291Z,100838.47
2023-01-03T02:01:24.786Z,100838.34
2023-01-03T02:03:27.467Z,100842.63
2023-01-03T02:05:32.052Z,100856.34
2023-01-03T02:07:34.747Z,100859.09
2023-01-03T02:09:36.591Z,100865.91
2023-01-03T02:11:50.857Z,100864.91
2023-01-03T02:14:36.041Z,100857.19
2023-01-03T02:16:52.228Z,100869.09
2023-01-03T02:19:20.055Z,100869.09
2023-01-03T02:21:27.906Z,100866.75
2023-01-03T02:23:47.768Z,100875.88
2023-01-03T02:26:27.929Z,100886.38
2023-01-03T02:28:41.753Z,100885.38
2023-01-03T02:30:50.417Z,100885.66
2023-01-03T02:33:16.419Z,100893.38
2023-01-03T02:35:27.260Z,100891.59
2023-01-03T02:37:50.128Z,100902.81
2023-01-03T02:40:12.572Z,100891.66
2023-01-03T02:42:42.540Z,100905.34
2023-01-03T02:44:58.372Z,100900.28
2023-01-03T02:47:09.737Z,100909.66
2023-01-03T02:49:30.163Z,100905.34
2023-01-03T02:51:46.183Z,100905.28
2023-01-03T02:53:51.350Z,100910.34
2023-01-03T02:55:58.648Z,100902.59
2023-01-03T02:58:09.600Z,100904.34
2023-01-03T03:00:15.181Z,100915.34
2023-01-03T03:02:22.346Z,100908.31
2023-01-03T03:04:25.268Z,100921.16
2023-01-03T03:06:41.607Z,100919.34
2023-01-03T03:08:48.697Z,100925.25
2023-01-03T03:11:11.541Z,100925.97
2023-01-03T03:13:26.118Z,100920.75
2023-01-03T03:15:36.484Z,100921.53
2023-01-03T03:17:39.445Z,100920.69
2023-01-03T03:20:06.310Z,100924.94
2023-01-03T03:23:08.075Z,100936.00
2023-01-03T03:25:14.731Z,100945.19
2023-01-03T03:27:38.475Z,100951.88
2023-01-03T03:29:40.715Z,100950.78
2023-01-03T03:31:47.224Z,100959.03
2023-01-03T03:34:07.898Z,100959.03
2023-01-03T03:36:40.319Z,100962.94
2023-01-03T03:38:44.958Z,100962.84
2023-01-03T03:41:18.141Z,100968.50
2023-01-03T03:43:54.136Z,100974.50
2023-01-03T03:45:56.002Z,100975.19
2023-01-03T03:48:12.120Z,100972.69
2023-01-03T03:50:45.728Z,100976.03
2023-01-03T03:52:52.014Z,100987.94
2023-01-03T03:55:10.085Z,100990.41
2023-01-03T03:57:33.944Z,100996.38
2023-01-03T03:59:37.459Z,100999.09
2023-01-03T04:01:41.424Z,100994.72
2023-01-03T04:03:44.642Z,101001.59
2023-01-03T04:05:52.698Z,100998.94
2023-01-03T04:07:55.929Z,101004.88
2023-01-03T04:09:57.816Z,101002.97
2023-01-03T04:11:59.655Z,101008.72
2023-01-03T04:14:02.539Z,100999.06
2023-01-03T04:16:05.932Z,101013.47
2023-01-03T04:18:07.950Z,101015.88
2023-01-03T04:20:11.493Z,101013.00
2023-01-03T04:22:13.338Z,101028.22
2023-01-03T04:24:15.191Z,101029.13
2023-01-03T04:26:17.660Z,101021.81
2023-01-03T04:28:20.718Z,101032.16
2023-01-03T04:30:23.759Z,101041.94
2023-01-03T04:32:25.709Z,101048.88
2023-01-03T04:34:28.645Z,101036.81
2023-01-03T04:36:32.537Z,101043.44
2023-01-03T04:38:34.368Z,101055.34
2023-01-03T04:40:38.885Z,101050.97
2023-01-03T04:43:03.674Z,101057.06
2023-01-03T04:45:06.419Z,101058.84
2023-01-03T04:47:08.238Z,101062.75
2023-01-03T04:49:10.763Z,101072.22
2023-01-03T04:51:12.790Z,101070.56
2023-01-03T04:53:15.269Z,101071.47
2023-01-03T04:55:17.325Z,101072.56
2023-01-03T04:57:19.186Z,101078.59
2023-01-03T04:59:21.099Z,101075.09
2023-01-03T05:01:25.811Z,101075.97
2023-01-03T05:03:28.504Z,101091.25
2023-01-03T05:05:30.368Z,101086.19
2023-01-03T05:07:32.459Z,101089.44
2023-01-03T05:09:35.324Z,101088.56
2023-01-03T05:11:37.254Z,101090.47
2023-01-03T05:13:40.286Z,101092.63
2023-01-03T05:15:42.208Z,101105.81
2023-01-03T05:17:45.197Z,101111.28
2023-01-03T05:20:07.172Z,101104.16
2023-01-03T05:22:27.890Z,101101.06
2023-01-03T05:24:50.032Z,101105.38
2023-01-03T05:26:52.871Z,101104.34
2023-01-03T05:28:55.521Z,101108.47
2023-01-03T05:31:01.003Z,101109.81
2023-01-03T05:33:03.990Z,101110.44
2023-01-03T05:35:06.464Z,101114.53
2023-01-03T05:37:08.447Z,101113.31
2023-01-03T05:39:10.509Z,101118.31
2023-01-03T05:41:14.175Z,101112.91
2023-01-03T05:43:16.356Z,101132.88
2023-01-03T05:45:19.737Z,101133.69
2023-01-03T05:47:21.688Z,101128.25
2023-01-03T05:49:23.687Z,101129.19
2023-01-03T05:51:25.789Z,101129.97
2023-01-03T05:53:27.736Z,101137.53
2023-01-03T05:55:30.613Z,101144.91
2023-01-03T05:57:35.626Z,101148.09
2023-01-03T05:59:37.678Z,101147.84
2023-01-03T06:01:39.984Z,101145.19
2023-01-03T06:03:46.934Z,101152.72
2023-01-03T06:05:50.548Z,101153.59
2023-01-03T06:07:52.661Z,101162.00
2023-01-03T06:09:54.628Z,101165.16
2023-01-03T06:11:57.799Z,101162.59
2023-01-03T06:14:00.815Z,101154.84
2023-01-03T06:16:32.041Z,101166.25
2023-01-03T06:18:37.630Z,101161.28
2023-01-03T06:20:40.612Z,101168.50
2023-01-03T06:22:42.616Z,101173.28
2023-01-03T06:24:44.500Z,101165.34
2023-01-03T06:26:46.530Z,101166.53
2023-01-03T06:28:48.556Z,101170.03
2023-01-03T06:30:51.500Z,101170.75
2023-01-03T06:32:53.586Z,101173.97
2023-01-03T06:34:55.543Z,101178.34
2023-01-03T06:36:58.485Z,101187.78
2023-01-03T06:39:01.049Z,101191.09
2023-01-03T06:41:03.396Z,101192.97
2023-01-03T06:43:05.299Z,101188.00
2023-01-03T06:45:26.279Z,101198.06
2023-01-03T06:47:47.888Z,101200.50
2023-01-03T06:50:08.380Z,101199.69
2023-01-03T06:52:35.580Z,101202.94
2023-01-03T06:54:38.680Z,101210.50
2023-01-03T06:56:41.615Z,101205.47
2023-01-03T06:58:47.860Z,101213.28
2023-01-03T07:00:57.551Z,101215.03
2023-01-03T07:03:02.018Z,101218.53
2023-01-03T07:05:12.429Z,101218.41
2023-01-03T07:07:14.391Z,101217.75
2023-01-03T07:09:16.681Z,101228.78
2023-01-03T07:11:18.671Z,101222.06
2023-01-03T07:13:39.286Z,101225.56
2023-01-03T07:15:47.548Z,101233.31
2023-01-03T07:17:49.527Z,101225.66
2023-01-03T07:19:52.457Z,101232.41
2023-01-03T07:21:54.382Z,101233.31
2023-01-03T07:23:59.188Z,101236.84
2023-01-03T07:26:01.196Z,101240.47
2023-01-03T07:28:07.158Z,101243.91
2023-01-03T07:30:11.493Z,101240.00
2023-01-03T07:32:17.395Z,101255.38
2023-01-03T07:34:21.386Z,101245.56
2023-01-03T07:36:23.528Z,101248.63
2023-01-03T07:38:25.409Z,101253.16
2023-01-03T07:40:27.320Z,101256.09
2023-01-03T07:42:47.776Z,101243.50
2023-01-03T07:44:49.675Z,101257.50
2023-01-03T07:46:52.673Z,101254.00
2023-01-03T07:48:59.278Z,101260.69
2023-01-03T07:51:01.592Z,101277.03
2023-01-03T07:53:05.986Z,101270.97
2023-01-03T07:55:09.203Z,101281.50
2023-01-03T07:57:11.119Z,101283.09
2023-01-03T07:59:13.425Z,101285.31
2023-01-03T08:01:18.292Z,101291.13
2023-01-03T08:03:21.513Z,101292.03
2023-01-03T08:05:23.909Z,101292.97
2023-01-03T08:07:25.811Z,101300.94
2023-01-03T08:09:46.242Z,101301.75
2023-01-03T08:12:06.547Z,101297.72
2023-01-03T08:14:08.528Z,101297.91
2023-01-03T08:16:13.938Z,101306.47
2023-01-03T08:18:20.201Z,101304.97
2023-01-03T08:20:23.135Z,101306.75
2023-01-03T08:22:25.100Z,101300.81
2023-01-03T08:24:27.043Z,101300.59
2023-01-03T08:26:29.069Z,101314.56
2023-01-03T08:28:31.272Z,101306.88
2023-01-03T08:30:36.299Z,101311.19
2023-01-03T08:32:39.025Z,101313.03
2023-01-03T08:34:44.530Z,101311.47
2023-01-03T08:36:55.807Z,101319.38
2023-01-03T08:39:09.653Z,101317.53
2023-01-03T08:41:14.875Z,101319.69
2023-01-03T08:43:17.622Z,101324.97
2023-01-03T08:45:22.169Z,101333.75
2023-01-03T08:47:31.123Z,101330.50
2023-01-03T08:49:35.170Z,101330.63
2023-01-03T08:51:37.174Z,101334.94
2023-01-03T08:53:40.317Z,101340.28
2023-01-03T08:55:48.034Z,101340.44
2023-01-03T08:57:55.779Z,101353.28
2023-01-03T08:59:57.785Z,101353.38
2023-01-03T09:02:00.952Z,101358.69
2023-01-03T09:04:03.190Z,101361.13
2023-01-03T09:06:06.562Z,101366.09
2023-01-03T09:08:08.824Z,101362.88
2023-01-03T09:10:12.416Z,101365.56
2023-01-03T09:12:14.496Z,101372.31
2023-01-03T09:14:16.550Z,101370.44
2023-01-03T09:16:20.819Z,101374.53
2023-01-03T09:18:22.877Z,101379.09
2023-01-03T09:20:24.857Z,101376.31
2023-01-03T09:22:27.852Z,101377.22
2023-01-03T09:24:29.897Z,101361.66
2023-01-03T09:26:31.929Z,101361.63
2023-01-03T09:28:34.125Z,101365.06
2023-01-03T09:30:36.087Z,101361.88
2023-01-03T09:32:38.015Z,101367.84
2023-01-03T09:34:39.978Z,101368.72
2023-01-03T09:36:42.908Z,101370.44
2023-01-03T09:38:45.062Z,101368.75
2023-01-03T09:40:48.483Z,101373.28
2023-01-03T09:43:10.099Z,101382.91
2023-01-03T09:45:15.797Z,101385.84
2023-01-03T09:47:22.801Z,101380.88
2023-01-03T09:49:24.878Z,101382.72
2023-01-03T09:51:50.063Z,101375.53
2023-01-03T09:54:14.780Z,101381.06
2023-01-03T09:56:36.524Z,101384.66
2023-01-03T09:58:58.740Z,101391.00
2023-01-03T10:01:34.905Z,101387.19
2023-01-03T10:04:11.316Z,101387.16
2023-01-03T10:06:31.510Z,101387.59
2023-01-03T10:09:05.971Z,101393.38
2023-01-03T10:11:15.045Z,101394.03
2023-01-03T10:13:44.060Z,101398.13
2023-01-03T10:16:15.743Z,101395.94
2023-01-03T10:18:33.810Z,101399.81
2023-01-03T10:20:42.325Z,101403.84
2023-01-03T10:22:49.221Z,101414.91
2023-01-03T10:25:15.533Z,101402.38
2023-01-03T10:27:22.651Z,101396.84
2023-01-03T10:29:25.406Z,101397.75
2023-01-03T10:31:50.467Z,101402.97
2023-01-03T10:33:52.552Z,101400.75
2023-01-03T10:35:54.801Z,101402.84
2023-01-03T10:38:01.152Z,101407.72
2023-01-03T10:40:05.275Z,101407.63
2023-01-03T10:42:07.267Z,101403.50
2023-01-03T10:44:32.692Z,101397.47
2023-01-03T10:46:50.406Z,101407.13
2023-01-03T10:51:55.769Z,101401.31
2023-01-03T10:54:01.250Z,101408.75
2023-01-03T10:56:05.520Z,101407.78
2023-01-03T10:58:34.127Z,101403.22
2023-01-03T11:00:40.446Z,101413.34
2023-01-03T11:02:47.107Z,101417.03
2023-01-03T11:05:12.671Z,101418.38
2023-01-03T11:07:17.204Z,101424.28
2023-01-03T11:09:19.178Z,101408.19
2023-01-03T11:11:37.190Z,101436.69
2023-01-03T11:13:43.465Z,101424.97
2023-01-03T11:15:45.417Z,101433.09
2023-01-03T11:18:01.747Z,101431.47
2023-01-03T11:20:18.343Z,101435.63
2023-01-03T11:22:45.999Z,101428.13
2023-01-03T11:24:58.719Z,101439.19
2023-01-03T11:27:10.357Z,101428.44
2023-01-03T11:29:14.956Z,101431.81
2023-01-03T11:31:45.159Z,101440.88
2023-01-03T11:33:55.838Z,101441.16
2023-01-03T11:36:06.150Z,101437.44
2023-01-03T11:38:29.526Z,101437.66
2023-01-03T11:41:05.619Z,101443.31
2023-01-03T11:43:39.829Z,101433.94
2023-01-03T11:46:06.653Z,101443.44
2023-01-03T11:48:30.368Z,101435.00
2023-01-03T11:50:52.032Z,101430.28
2023-01-03T11:52:53.786Z,101443.91
2023-01-03T11:55:30.865Z,101439.22
2023-01-03T11:57:51.036Z,101441.00
2023-01-03T12:00:17.376Z,101439.09
2023-01-03T12:02:32.443Z,101439.53
2023-01-03T12:04:47.074Z,101443.63
2023-01-03T12:09:55.327Z,101439.13
2023-01-03T12:12:04.171Z,101453.97
2023-01-03T12:14:24.578Z,101451.56
2023-01-03T12:16:42.400Z,101458.69
2023-01-03T12:19:11.927Z,101453.50
2023-01-03T12:21:36.646Z,101468.22
2023-01-03T12:24:06.007Z,101462.72
2023-01-03T12:26:15.836Z,101456.81
2023-01-03T12:28:23.424Z,101456.56
2023-01-03T12:30:31.879Z,101449.22
2023-01-03T12:32:56.223Z,101462.47
2023-01-03T12:35:19.632Z,101456.75
2023-01-03T12:37:29.991Z,101462.09
2023-01-03T12:39:33.693Z,101459.16
2023-01-03T12:41:47.009Z,101462.97
2023-01-03T12:44:04.245Z,101462.25
2023-01-03T12:46:24.284Z,101455.75
2023-01-03T12:48:45.114Z,101462.38
2023-01-03T12:50:52.464Z,101469.03
2023-01-03T12:53:36.089Z,101459.84
2023-01-03T12:56:06.885Z,101469.38
2023-01-03T12:58:14.540Z,101460.56
2023-01-03T13:00:38.647Z,101456.97
2023-01-03T13:02:40.669Z,101463.09
2023-01-03T13:04:44.956Z,101467.97
2023-01-03T13:07:06.185Z,101464.16
2023-01-03T13:09:17.400Z,101454.66
2023-01-03T13:11:29.014Z,101461.50
2023-01-03T13:13:33.083Z,101459.50
2023-01-03T13:15:37.134Z,101464.72
2023-01-03T13:17:46.904Z,101462.44
2023-01-03T13:19:52.196Z,101465.81
2023-01-03T13:21:54.236Z,101459.63
2023-01-03T13:24:02.434Z,101464.19
2023-01-03T13:26:07.478Z,101468.09
2023-01-03T13:28:20.451Z,101466.25
2023-01-03T13:30:32.773Z,101474.22
2023-01-03T13:32:49.436Z,101469.97
2023-01-03T13:34:54.403Z,101476.22
2023-01-03T13:37:08.419Z,101475.19
2023-01-03T13:39:39.447Z,101486.72
2023-01-03T13:41:43.418Z,101485.25
2023-01-03T13:43:50.258Z,101485.66
2023-01-03T13:45:55.026Z,101490.34
2023-01-03T13:47:58.309Z,101478.13
2023-01-03T13:50:00.603Z,101482.84
2023-01-03T13:52:05.681Z,101477.94
2023-01-03T13:54:13.460Z,101485.72
2023-01-03T13:56:15.375Z,101486.31
2023-01-03T13:58:39.212Z,101482.34
2023-01-03T14:00:47.427Z,101483.88
2023-01-03T14:03:16.862Z,101489.31
2023-01-03T14:05:37.670Z,101491.88
2023-01-03T14:08:17.449Z,101490.53
2023-01-03T14:10:44.348Z,101493.72
2023-01-03T14:13:17.360Z,101501.53
2023-01-03T14:15:26.782Z,101500.38
2023-01-03T14:17:48.434Z,101502.84
2023-01-03T14:20:03.102Z,101504.78
2023-01-03T14:22:30.497Z,101510.81
2023-01-03T14:24:48.536Z,101503.16
2023-01-03T14:27:06.982Z,101508.25
2023-01-03T14:29:19.172Z,101513.94
2023-01-03T14:31:29.451Z,101513.06
2023-01-03T14:33:43.069Z,101516.16
2023-01-03T14:35:45.665Z,101519.41
2023-01-03T14:38:06.769Z,101528.53
2023-01-03T14:40:20.644Z,101523.84
2023-01-03T14:42:25.981Z,101533.84
2023-01-03T14:44:29.516Z,101529.13
2023-01-03T14:46:34.689Z,101530.81
2023-01-03T14:48:38.168Z,101541.53
2023-01-03T14:50:43.208Z,101539.78
2023-01-03T14:52:56.395Z,101534.41
2023-01-03T14:55:04.889Z,101539.00
2023-01-03T14:57:17.640Z,101546.06
2023-01-03T14:59:23.037Z,101546.28
2023-01-03T15:01:28.948Z,101550.00
2023-01-03T15:03:37.208Z,101553.41
2023-01-03T15:05:41.022Z,101549.69
2023-01-03T15:07:44.498Z,101547.84
2023-01-03T15:09:46.518Z,101550.56
2023-01-03T15:11:57.276Z,101552.75
2023-01-03T15:14:14.307Z,101554.59
2023-01-03T15:16:46.528Z,101557.25
2023-01-03T15:18:49.935Z,101555.38
2023-01-03T15:20:56.097Z,101563.13
2023-01-03T15:22:59.157Z,101560.38
2023-01-03T15:25:16.796Z,101563.59
2023-01-03T15:27:43.793Z,101569.38
2023-01-03T15:29:45.817Z,101561.56
2023-01-03T15:32:11.633Z,101569.19
2023-01-03T15:34:41.990Z,101565.66
2023-01-03T15:36:56.879Z,101563.22
2023-01-03T15:39:25.105Z,101570.84
2023-01-03T15:42:12.210Z,101565.06
2023-01-03T15:44:29.137Z,101564.69
2023-01-03T15:46:44.321Z,101563.88
2023-01-03T15:48:56.421Z,101558.53
2023-01-03T15:50:58.525Z,101566.63
2023-01-03T15:53:01.540Z,101573.97
2023-01-03T15:55:13.098Z,101576.22
2023-01-03T15:57:21.067Z,101580.53
2023-01-03T15:59:34.696Z,101585.03
2023-01-03T16:01:42.252Z,101585.41
2023-01-03T16:03:50.227Z,101586.09
2023-01-03T16:06:03.160Z,101579.94
2023-01-03T16:08:32.553Z,101580.59
2023-01-03T16:10:42.930Z,101588.34
2023-01-03T16:12:50.656Z,101593.44
2023-01-03T16:15:00.216Z,101587.66
2023-01-03T16:17:04.259Z,101595.22
2023-01-03T16:19:34.790Z,101591.00
2023-01-03T16:22:09.003Z,101594.53
2023-01-03T16:24:18.188Z,101598.63
2023-01-03T16:26:20.715Z,101601.03
2023-01-03T16:28:25.987Z,101605.03
2023-01-03T16:30:36.915Z,101599.53
2023-01-03T16:32:43.450Z,101601.69
2023-01-03T16:34:47.916Z,101602.00
2023-01-03T16:36:54.301Z,101606.91
2023-01-03T16:38:56.338Z,101598.22
2023-01-03T16:41:09.325Z,101605.09
2023-01-03T16:43:21.821Z,101615.28
2023-01-03T16:45:27.927Z,101614.44
2023-01-03T16:47:36.701Z,101615.44
2023-01-03T16:49:41.956Z,101627.09
2023-01-03T16:51:57.547Z,101626.53
2023-01-03T16:54:00.776Z,101617.88
2023-01-03T16:56:08.311Z,101626.19
2023-01-03T16:58:16.061Z,101621.13
2023-01-03T17:00:31.316Z,101612.34
2023-01-03T17:02:40.171Z,101620.97
2023-01-03T17:04:42.436Z,101623.41
2023-01-03T17:06:45.183Z,101628.50
2023-01-03T17:08:55.670Z,101629.19
2023-01-03T17:11:17.319Z,101627.63
2023-01-03T17:13:27.653Z,101624.28
2023-01-03T17:15:47.017Z,101622.97
2023-01-03T17:17:49.179Z,101630.72
2023-01-03T17:20:06.679Z,101634.06
2023-01-03T17:22:23.298Z,101630.34
2023-01-03T17:24:34.440Z,101630.41
2023-01-03T17:26:36.737Z,101628.69
2023-01-03T17:28:53.558Z,101633.16
2023-01-03T17:31:05.083Z,101629.19
2023-01-03T17:33:06.994Z,101633.38
2023-01-03T17:35:12.569Z,101633.78
2023-01-03T17:37:58.308Z,101635.75
2023-01-03T17:40:17.352Z,101626.16
2023-01-03T17:42:20.918Z,101634.78
2023-01-03T17:44:22.879Z,101644.59
2023-01-03T17:46:47.423Z,101643.19
2023-01-03T17:49:24.621Z,101653.50
2023-01-03T17:51:27.215Z,101648.16
2023-01-03T17:53:34.421Z,101648.03
2023-01-03T17:55:41.952Z,101644.94
2023-01-03T17:58:19.207Z,101653.75
2023-01-03T18:00:33.786Z,101638.88
2023-01-03T18:02:52.953Z,101642.53
2023-01-03T18:07:34.575Z,101642.53
2023-01-03T18:09:47.903Z,101647.44
2023-01-03T18:12:02.940Z,101648.41
2023-01-03T18:14:05.947Z,101653.00
2023-01-03T18:16:22.517Z,101651.88
2023-01-03T18:18:52.471Z,101649.69
2023-01-03T18:21:13.372Z,101655.34
2023-01-03T18:23:37.787Z,101657.88
2023-01-03T18:25:43.253Z,101657.56
2023-01-03T18:27:53.272Z,101671.59
2023-01-03T18:29:59.740Z,101669.13
2023-01-03T18:32:03.237Z,101667.50
2023-01-03T18:34:12.108Z,101668.50
2023-01-03T18:36:43.700Z,101663.97
2023-01-03T18:38:52.628Z,101667.06
2023-01-03T18:41:06.428Z,101668.41
2023-01-03T18:43:15.342Z,101670.16
2023-01-03T18:45:34.178Z,101671.81
2023-01-03T18:47:44.321Z,101678.78
2023-01-03T18:49:54.456Z,101680.34
2023-01-03T18:52:22.329Z,101681.44
2023-01-03T18:54:28.712Z,101686.97
2023-01-03T18:56:45.235Z,101675.03
2023-01-03T18:59:10.619Z,101671.81
2023-01-03T19:01:13.727Z,101672.81
2023-01-03T19:03:33.436Z,101674.69
2023-01-03T19:05:41.613Z,101677.03
2023-01-03T19:07:51.516Z,101673.13
2023-01-03T19:09:53.745Z,101684.88
2023-01-03T19:12:04.188Z,101676.75
2023-01-03T19:14:14.476Z,101676.34
2023-01-03T19:16:52.484Z,101686.28
2023-01-03T19:18:55.374Z,101676.69
2023-01-03T19:20:57.483Z,101683.66
2023-01-03T19:22:59.623Z,101691.38
2023-01-03T19:25:14.525Z,101694.47
2023-01-03T19:30:44.657Z,101694.59
2023-01-03T19:32:56.081Z,101696.91
2023-01-03T19:35:16.867Z,101690.50
2023-01-03T19:37:23.044Z,101692.38
2023-01-03T19:39:38.240Z,101702.66
2023-01-03T19:42:04.301Z,101702.47
2023-01-03T19:44:25.827Z,101701.13
2023-01-03T19:46:30.466Z,101703.78
2023-01-03T19:48:35.708Z,101702.50
2023-01-03T19:50:53.393Z,101710.75
2023-01-03T19:53:06.832Z,101710.50
2023-01-03T19:55:45.814Z,101714.03
2023-01-03T19:57:50.303Z,101717.69
2023-01-03T19:59:57.490Z,101711.50
2023-01-03T20:02:38.391Z,101711.72
2023-01-03T20:05:00.408Z,101704.09
2023-01-03T20:07:15.243Z,101703.53
2023-01-03T20:09:29.598Z,101700.47
2023-01-03T20:11:37.142Z,101707.56
2023-01-03T20:13:56.099Z,101708.88
2023-01-03T20:16:02.910Z,101710.78
2023-01-03T20:18:25.458Z,101715.66
2023-01-03T20:20:34.997Z,101710.63
2023-01-03T20:23:04.543Z,101715.00
2023-01-03T20:25:30.408Z,101719.75
2023-01-03T20:27:47.115Z,101726.03
2023-01-03T20:29:50.821Z,101722.31
2023-01-03T20:32:09.826Z,101720.03
2023-01-03T20:34:17.450Z,101726.56
2023-01-03T20:36:24.554Z,101719.06
2023-01-03T20:38:27.617Z,101718.47
2023-01-03T20:40:37.623Z,101726.91
2023-01-03T20:42:39.748Z,101725.91
2023-01-03T20:45:00.322Z,101731.44
2023-01-03T20:47:14.198Z,101732.97
2023-01-03T20:49:31.927Z,101738.63
2023-01-03T20:51:49.537Z,101742.91
2023-01-03T20:53:55.105Z,101741.16
2023-01-03T20:55:58.492Z,101743.16
2023-01-03T20:58:02.182Z,101742.16
2023-01-03T21:00:07.007Z,101740.03
2023-01-03T21:02:16.809Z,101735.84
2023-01-03T21:04:20.205Z,101740.25
2023-01-03T21:06:25.524Z,101742.00
2023-01-03T21:08:46.227Z,101743.22
2023-01-03T21:10:53.096Z,101735.59
2023-01-03T21:12:55.053Z,101741.34
2023-01-03T21:14:57.354Z,101745.09
2023-01-03T21:16:59.787Z,101734.16
2023-01-03T21:19:03.668Z,101734.28
2023-01-03T21:21:06.806Z,101739.56
2023-01-03T21:23:17.782Z,101737.78
2023-01-03T21:25:36.854Z,101748.41
2023-01-03T21:27:40.549Z,101744.22
2023-01-03T21:29:49.166Z,101748.19
2023-01-03T21:31:51.529Z,101753.72
2023-01-03T21:33:54.218Z,101749.41
2023-01-03T21:35:56.538Z,101749.06
2023-01-03T21:37:58.898Z,101747.94
2023-01-03T21:40:01.114Z,101752.84
2023-01-03T21:42:24.049Z,101755.25
2023-01-03T21:44:26.438Z,101758.13
2023-01-03T21:46:30.391Z,101756.38
2023-01-03T21:48:32.508Z,101749.53
2023-01-03T21:50:39.284Z,101754.81
2023-01-03T21:52:43.414Z,101752.63
2023-01-03T21:54:45.595Z,101753.94
2023-01-03T21:56:47.790Z,101757.91
2023-01-03T21:58:50.959Z,101754.38
2023-01-03T22:00:53.226Z,101752.44
2023-01-03T22:03:13.797Z,101750.84
2023-01-03T22:05:15.984Z,101751.75
2023-01-03T22:07:22.188Z,101750.44
2023-01-03T22:09:44.201Z,101751.63
2023-01-03T22:11:48.619Z,101754.84
2023-01-03T22:13:56.352Z,101748.66
2023-01-03T22:16:04.472Z,101748.44
2023-01-03T22:18:09.293Z,101753.75
2023-01-03T22:20:15.592Z,101751.66
2023-01-03T22:22:17.811Z,101750.66
2023-01-03T22:24:19.809Z,101757.75
2023-01-03T22:26:22.056Z,101751.13
2023-01-03T22:28:25.361Z,101749.00
2023-01-03T22:30:27.805Z,101747.13
2023-01-03T22:32:30.185Z,101748.69
2023-01-03T22:34:32.468Z,101752.22
2023-01-03T22:36:34.552Z,101743.19
2023-01-03T22:38:38.063Z,101750.47
2023-01-03T22:40:40.207Z,101751.81
2023-01-03T22:42:42.248Z,101752.69
2023-01-03T22:44:44.253Z,101745.81
2023-01-03T22:46:46.187Z,101753.56
2023-01-03T22:48:48.178Z,101756.66
2023-01-03T22:50:50.138Z,101755.78
2023-01-03T22:52:54.395Z,101754.03
2023-01-03T22:54:57.289Z,101758.97
2023-01-03T22:57:00.021Z,101760.53
2023-01-03T22:59:03.040Z,101761.41
2023-01-03T23:01:13.608Z,101756.88
2023-01-03T23:03:15.639Z,101752.69
2023-01-03T23:05:17.602Z,101756.88
2023-01-03T23:07:19.526Z,101757.19
2023-01-03T23:09:22.391Z,101756.00
2023-01-03T23:11:45.723Z,101757.97
2023-01-03T23:13:47.771Z,101760.66
2023-01-03T23:15:49.711Z,101757.75
2023-01-03T23:17:57.444Z,101756.84
2023-01-03T23:19:59.430Z,101759.28
2023-01-03T23:22:01.281Z,101754.88
2023-01-03T23:24:03.525Z,101757.94
2023-01-03T23:26:05.645Z,101754.06
2023-01-03T23:28:07.483Z,101751.63
2023-01-03T23:30:10.933Z,101752.84
2023-01-03T23:32:12.929Z,101751.69
2023-01-03T23:34:15.795Z,101758.41
2023-01-03T23:36:17.992Z,101759.53
2023-01-03T23:38:20.044Z,101758.75
2023-01-03T23:40:21.975Z,101757.84
2023-01-03T23:42:23.964Z,101767.75
2023-01-03T23:44:26.824Z,101764.22
2023-01-03T23:46:28.880Z,101762.97
2023-01-03T23:48:31.763Z,101762.88
2023-01-03T23:50:33.767Z,101769.50
2023-01-03T23:52:35.690Z,101765.28
2023-01-03T23:54:38.602Z,101768.72
2023-01-03T23:56:40.568Z,101768.59
2023-01-03T23:58:43.019Z,101771.66
